Аэропорт
Владивосток (UHWW)

 UHWW / VVO
ЗЦ Хабаровск
Хабаровск (UHHH)
Хабаровск (UHHH)
 43.39900, 132.14800  / 46 ft

 UHWW 191030Z 08001MPS 9999 NSC 03/M03 Q1009 R25L/0///70 NOSIG RMK QFE756
 UHWW 182300Z 1900/1924 03003MPS 3100 BR BKN011 TEMPO 1900/1902 VRB01MPS SCT004 FM190200 18003MPS 9999 BKN020 TEMPO 1902/1912 19006G11MPS
UHWW_aip_1709
показать схемы
Название сценария Тип сценария Flight Simulator 9 Flight Simulator X Prepar3D v2 Prepar3D v3 Prepar3D v4 xPlane
UHWW - test version for the Fly-inn only платный(+демо)
UHWW, Vladivostok 1.0.0 X-Flight бесплатный
UHWW, Vladivostok 2017 v 1.2 бесплатный
uhww-scenery-fs9-1408 бесплатный
uhww-scenery-fsx-1304 бесплатный
uhww-scenery-p3d-1502 бесплатный



2019 © VATRUS division (Privacy Policy)